Terminal Aerodrome Forecast
Issued by NWS Wichita, KS

Home | Current Version | Previous Version | Text Only | Print | Product List | Glossary Off
Versions: 1 2 3 4 5 6 7 8 9 10 11 12 13 14 15 16 17 18 19

000
FTUS43 KICT 240535
TAFICT
TAF
KICT 240535Z 2406/2506 34017G26KT P6SM OVC018
      TEMPO 2406/2409 5SM -RASN BR OVC012
     FM241700 32015KT P6SM SCT020 BKN035
     FM242200 28010KT P6SM SKC
     FM250300 19007KT P6SM SKC=

USA.gov is the U.S. government's official web portal to all federal, state and local government web resources and services.